X  ZamknijMetar - Lotnicze dane pogodowe     EPKT Katowice International

Temperatura

20°C Temperatura

7°C Punkt rosy

43% Wilgotność



Wiatr

32 km/h

20 MPH

 9 m/s

17 KTS



290°
WNW
Obecne warunki

Rozproszone chmury Rozproszone chmury
Ciśnienie 1011.92 (hPa) - 29.88 (in)
Widoczność 6.2 (mi) - 10 (km)
Lotnisko
Kod lotniska EPKT

Lokalizacja Katowice International 23 (km)

Metar:
EPKT 161200Z 29017KT 9999 SCT042 20/07 Q1012

Czas: 16-07-2019 14:00